createdAt,value
2019-02-19T00:00:31.899Z,0.00
2019-02-19T00:01:31.930Z,0.00
2019-02-19T00:02:31.920Z,0.00
2019-02-19T00:03:31.909Z,0.00
2019-02-19T00:04:31.852Z,0.00
2019-02-19T00:05:31.860Z,0.00
2019-02-19T00:06:31.828Z,0.00
2019-02-19T00:07:31.823Z,0.00
2019-02-19T00:08:31.806Z,0.00
2019-02-19T00:09:31.842Z,0.00
2019-02-19T00:10:31.784Z,0.00
2019-02-19T00:11:31.781Z,0.00
2019-02-19T00:12:31.768Z,0.00
2019-02-19T00:13:31.750Z,0.00
2019-02-19T00:14:31.783Z,0.00
2019-02-19T00:15:31.731Z,0.00
2019-02-19T00:16:31.717Z,0.00
2019-02-19T00:17:31.705Z,0.00
2019-02-19T00:18:31.702Z,0.00
2019-02-19T00:19:31.683Z,0.00
2019-02-19T00:20:31.863Z,0.00
2019-02-19T00:21:31.662Z,0.00
2019-02-19T00:22:31.649Z,0.00
2019-02-19T00:23:31.639Z,0.00
2019-02-19T00:24:31.670Z,0.00
2019-02-19T00:25:31.618Z,0.00
2019-02-19T00:26:31.606Z,0.00
2019-02-19T00:27:31.593Z,0.00
2019-02-19T00:28:31.585Z,0.00
2019-02-19T00:29:31.572Z,0.00
2019-02-19T00:30:31.606Z,0.00
2019-02-19T00:31:31.552Z,0.00
2019-02-19T00:32:31.542Z,0.00
2019-02-19T00:33:31.528Z,0.00
2019-02-19T00:34:31.567Z,0.00
2019-02-19T00:35:31.507Z,0.00
2019-02-19T00:36:31.497Z,0.00
2019-02-19T00:37:31.483Z,0.00
2019-02-19T00:38:31.475Z,0.00
2019-02-19T00:39:31.502Z,0.00
2019-02-19T00:40:31.493Z,0.00
2019-02-19T00:41:31.443Z,0.00
2019-02-19T00:42:31.430Z,0.00
2019-02-19T00:43:31.447Z,0.00
2019-02-19T00:44:31.448Z,0.00
2019-02-19T00:45:31.401Z,0.00
2019-02-19T00:46:31.385Z,0.00
2019-02-19T00:47:31.374Z,0.00
2019-02-19T00:48:31.365Z,0.00
2019-02-19T00:49:31.350Z,0.00
2019-02-19T00:50:31.379Z,0.00
2019-02-19T00:51:31.341Z,0.00
2019-02-19T00:52:31.319Z,0.00
2019-02-19T00:53:31.306Z,0.00
2019-02-19T00:54:31.297Z,0.00
2019-02-19T00:55:31.332Z,0.00
2019-02-19T00:56:31.277Z,0.00
2019-02-19T00:57:31.262Z,0.00
2019-02-19T00:58:31.251Z,0.00
2019-02-19T00:59:31.241Z,0.00
2019-02-19T01:00:31.230Z,0.00
2019-02-19T01:01:31.264Z,0.00
2019-02-19T01:02:31.214Z,0.00
2019-02-19T01:03:31.196Z,0.00
2019-02-19T01:04:31.193Z,0.00
2019-02-19T01:05:31.173Z,0.00
2019-02-19T01:06:31.168Z,0.00
2019-02-19T01:07:31.192Z,0.00
2019-02-19T01:08:31.186Z,0.00
2019-02-19T01:09:31.130Z,0.00
2019-02-19T01:10:31.118Z,0.00
2019-02-19T01:11:31.151Z,0.00
2019-02-19T01:12:31.095Z,0.00
2019-02-19T01:13:31.139Z,0.00
2019-02-19T01:14:31.074Z,0.00
2019-02-19T01:15:31.068Z,0.00
2019-02-19T01:16:31.053Z,0.00
2019-02-19T01:17:31.043Z,0.00
2019-02-19T01:18:31.031Z,0.00
2019-02-19T01:19:31.062Z,0.00
2019-02-19T01:20:31.007Z,0.00
2019-02-19T01:21:31.025Z,0.00
2019-02-19T01:22:30.989Z,0.00
2019-02-19T01:23:30.977Z,0.00
2019-02-19T01:24:30.963Z,0.00
2019-02-19T01:25:30.999Z,0.00
2019-02-19T01:26:30.991Z,0.00
2019-02-19T01:27:30.933Z,0.00
2019-02-19T01:28:30.985Z,0.00
2019-02-19T01:29:30.911Z,0.00
2019-02-19T01:30:30.897Z,0.00
2019-02-19T01:31:30.886Z,0.00
2019-02-19T01:32:30.895Z,0.00
2019-02-19T01:33:30.868Z,0.00
2019-02-19T01:34:30.904Z,0.00
2019-02-19T01:35:30.843Z,0.00
2019-02-19T01:36:30.832Z,0.00
2019-02-19T01:37:30.820Z,0.00
2019-02-19T01:38:30.812Z,0.00
2019-02-19T01:39:30.804Z,0.00
2019-02-19T01:40:30.842Z,0.00
2019-02-19T01:41:30.775Z,0.00
2019-02-19T01:42:30.768Z,0.00
2019-02-19T01:43:30.775Z,0.00
2019-02-19T01:44:30.742Z,0.00
2019-02-19T01:45:34.158Z,0.00
2019-02-19T01:46:30.781Z,0.00
2019-02-19T01:47:30.709Z,0.00
2019-02-19T01:48:30.699Z,0.00
2019-02-19T01:49:30.702Z,0.00
2019-02-19T01:50:30.675Z,0.00
2019-02-19T01:51:30.667Z,0.00
2019-02-19T01:52:30.693Z,0.00
2019-02-19T01:53:30.687Z,0.00
2019-02-19T01:54:30.635Z,0.00
2019-02-19T01:55:30.623Z,0.00
2019-02-19T01:56:30.613Z,0.00
2019-02-19T01:57:30.646Z,0.00
2019-02-19T01:58:30.589Z,0.00
2019-02-19T01:59:30.577Z,0.00
2019-02-19T02:00:30.566Z,0.00
2019-02-19T02:01:30.554Z,0.00
2019-02-19T02:02:30.552Z,0.00
2019-02-19T02:03:30.583Z,0.00
2019-02-19T02:04:30.522Z,0.00
2019-02-19T02:05:30.511Z,0.00
2019-02-19T02:06:30.523Z,0.00
2019-02-19T02:07:30.488Z,0.00
2019-02-19T02:08:30.523Z,0.00
2019-02-19T02:09:30.468Z,0.00
2019-02-19T02:10:30.455Z,0.00
2019-02-19T02:11:30.453Z,0.00
2019-02-19T02:12:30.435Z,0.00
2019-02-19T02:13:30.472Z,0.00
2019-02-19T02:14:30.415Z,0.00
2019-02-19T02:15:30.401Z,0.00
2019-02-19T02:16:30.388Z,0.00
2019-02-19T02:17:30.382Z,0.00
2019-02-19T02:18:30.371Z,0.00
2019-02-19T02:19:30.398Z,0.00
2019-02-19T02:20:30.348Z,0.00
2019-02-19T02:21:30.335Z,0.00
2019-02-19T02:22:30.327Z,0.00
2019-02-19T02:23:30.314Z,0.00
2019-02-19T02:24:30.344Z,0.00
2019-02-19T02:25:30.344Z,0.00
2019-02-19T02:26:30.280Z,0.00
2019-02-19T02:27:30.268Z,0.00
2019-02-19T02:28:30.262Z,0.00
2019-02-19T02:29:30.257Z,0.00
2019-02-19T02:30:30.264Z,0.00
2019-02-19T02:31:30.265Z,0.00
2019-02-19T02:32:30.219Z,0.00
2019-02-19T02:33:30.204Z,0.00
2019-02-19T02:34:30.192Z,0.00
2019-02-19T02:35:30.226Z,0.00
2019-02-19T02:36:30.169Z,0.00
2019-02-19T02:37:30.204Z,0.00
2019-02-19T02:38:30.148Z,0.00
2019-02-19T02:39:30.143Z,0.00
2019-02-19T02:40:30.131Z,0.00
2019-02-19T02:41:30.114Z,0.00
2019-02-19T02:42:30.156Z,0.00
2019-02-19T02:43:30.097Z,0.00
2019-02-19T02:44:30.086Z,0.00
2019-02-19T02:45:30.114Z,0.00
2019-02-19T02:46:30.101Z,0.00
2019-02-19T02:47:30.053Z,0.00
2019-02-19T02:48:30.040Z,0.00
2019-02-19T02:49:30.028Z,0.00
2019-02-19T02:50:30.017Z,0.00
2019-02-19T02:51:30.014Z,0.00
2019-02-19T02:52:30.039Z,0.00
2019-02-19T02:53:30.006Z,0.00
2019-02-19T02:54:29.971Z,0.00
2019-02-19T02:55:29.963Z,0.00
2019-02-19T02:56:29.949Z,0.00
2019-02-19T02:57:29.943Z,0.00
2019-02-19T02:58:29.971Z,0.00
2019-02-19T02:59:29.922Z,0.00
2019-02-19T03:00:29.950Z,0.00
2019-02-19T03:01:29.901Z,0.00
2019-02-19T03:02:29.884Z,0.00
2019-02-19T03:03:29.874Z,0.00
2019-02-19T03:04:29.902Z,0.00
2019-02-19T03:05:29.851Z,0.00
2019-02-19T03:06:29.842Z,0.00
2019-02-19T03:07:29.831Z,0.00
2019-02-19T03:08:29.868Z,0.00
2019-02-19T03:09:29.849Z,0.00
2019-02-19T03:10:29.826Z,0.00
2019-02-19T03:11:29.842Z,0.00
2019-02-19T03:12:29.776Z,0.00
2019-02-19T03:13:29.766Z,0.00
2019-02-19T03:14:29.801Z,0.00
2019-02-19T03:15:29.746Z,0.00
2019-02-19T03:16:29.736Z,0.00
2019-02-19T03:17:29.721Z,0.00
2019-02-19T03:18:29.713Z,0.00
2019-02-19T03:19:29.698Z,0.00
2019-02-19T03:20:29.740Z,0.00
2019-02-19T03:21:29.678Z,0.00
2019-02-19T03:22:29.708Z,0.00
2019-02-19T03:23:29.668Z,0.00
2019-02-19T03:24:29.644Z,0.00
2019-02-19T03:25:29.631Z,0.00
2019-02-19T03:26:29.627Z,0.00
2019-02-19T03:27:29.651Z,0.00
2019-02-19T03:28:29.599Z,0.00
2019-02-19T03:29:29.632Z,0.00
2019-02-19T03:30:29.581Z,0.00
2019-02-19T03:31:29.608Z,0.00
2019-02-19T03:32:29.577Z,0.00
2019-02-19T03:33:29.585Z,0.00
2019-02-19T03:34:29.539Z,0.00
2019-02-19T03:35:29.522Z,0.00
2019-02-19T03:36:29.516Z,0.00
2019-02-19T03:37:29.543Z,0.00
2019-02-19T03:38:29.488Z,0.00
2019-02-19T03:39:29.480Z,0.00
2019-02-19T03:40:29.481Z,0.00
2019-02-19T03:41:29.460Z,0.00
2019-02-19T03:42:29.489Z,0.00
2019-02-19T03:43:29.438Z,0.00
2019-02-19T03:44:29.424Z,0.00
2019-02-19T03:45:29.411Z,0.00
2019-02-19T03:46:30.460Z,0.00
2019-02-19T03:47:29.396Z,0.00
2019-02-19T03:48:29.423Z,0.00
2019-02-19T03:49:29.424Z,0.00
2019-02-19T03:50:29.361Z,0.00
2019-02-19T03:51:29.361Z,0.00
2019-02-19T03:52:29.377Z,0.00
2019-02-19T03:53:29.325Z,0.00
2019-02-19T03:54:29.316Z,0.00
2019-02-19T03:55:29.315Z,0.00
2019-02-19T03:56:29.291Z,0.00
2019-02-19T03:57:29.288Z,0.00
2019-02-19T03:58:29.322Z,0.00
2019-02-19T03:59:29.260Z,0.00
2019-02-19T04:00:29.258Z,0.00
2019-02-19T04:01:29.275Z,0.00
2019-02-19T04:02:29.224Z,0.00
2019-02-19T04:03:29.213Z,0.00
2019-02-19T04:04:29.207Z,0.00
2019-02-19T04:05:29.237Z,0.00
2019-02-19T04:06:29.199Z,0.00
2019-02-19T04:07:29.175Z,0.00
2019-02-19T04:08:29.218Z,0.00
2019-02-19T04:09:29.159Z,0.00
2019-02-19T04:10:29.136Z,0.00
2019-02-19T04:11:29.166Z,0.00
2019-02-19T04:12:29.114Z,0.00
2019-02-19T04:13:29.102Z,0.00
2019-02-19T04:14:29.139Z,0.00
2019-02-19T04:15:29.082Z,0.00
2019-02-19T04:16:29.069Z,0.00
2019-02-19T04:17:29.059Z,0.00
2019-02-19T04:18:29.051Z,0.00
2019-02-19T04:19:29.039Z,0.00
2019-02-19T04:20:29.065Z,0.00
2019-02-19T04:21:29.014Z,0.00
2019-02-19T04:22:29.002Z,0.00
2019-02-19T04:23:28.995Z,0.00
2019-02-19T04:24:28.979Z,0.00
2019-02-19T04:25:29.012Z,0.00
2019-02-19T04:26:29.017Z,0.00
2019-02-19T04:27:28.949Z,0.00
2019-02-19T04:28:28.935Z,0.00
2019-02-19T04:29:28.924Z,0.00
2019-02-19T04:30:28.914Z,0.00
2019-02-19T04:31:28.952Z,0.00
2019-02-19T04:32:28.911Z,0.00
2019-02-19T04:33:28.894Z,0.00
2019-02-19T04:34:28.874Z,0.00
2019-02-19T04:35:28.859Z,0.00
2019-02-19T04:36:28.847Z,0.00
2019-02-19T04:37:30.017Z,0.00
2019-02-19T04:38:28.834Z,0.00
2019-02-19T04:39:28.855Z,0.00
2019-02-19T04:40:28.808Z,0.00
2019-02-19T04:41:28.790Z,0.00
2019-02-19T04:42:28.788Z,0.00
2019-02-19T04:43:28.771Z,0.00
2019-02-19T04:44:28.803Z,0.00
2019-02-19T04:45:28.750Z,0.00
2019-02-19T04:46:31.769Z,0.00
2019-02-19T04:47:28.723Z,0.00
2019-02-19T04:48:28.714Z,0.00
2019-02-19T04:49:28.702Z,0.00
2019-02-19T04:50:28.736Z,0.00
2019-02-19T04:51:28.685Z,0.00
2019-02-19T04:52:28.669Z,0.00
2019-02-19T04:53:28.660Z,0.00
2019-02-19T04:54:28.689Z,0.00
2019-02-19T04:55:28.658Z,0.00
2019-02-19T04:56:28.624Z,0.00
2019-02-19T04:57:28.615Z,0.00
2019-02-19T04:58:28.601Z,0.00
2019-02-19T04:59:28.590Z,0.00
2019-02-19T05:00:28.620Z,0.00
2019-02-19T05:01:28.606Z,0.00
2019-02-19T05:02:28.557Z,0.00
2019-02-19T05:03:28.545Z,0.00
2019-02-19T05:04:28.544Z,0.00
2019-02-19T05:05:28.540Z,0.00
2019-02-19T05:06:28.555Z,0.00
2019-02-19T05:07:28.506Z,0.00
2019-02-19T05:08:28.491Z,0.00
2019-02-19T05:09:28.483Z,0.00
2019-02-19T05:10:28.468Z,0.00
2019-02-19T05:11:28.455Z,0.00
2019-02-19T05:12:28.486Z,0.00
2019-02-19T05:13:28.435Z,0.00
2019-02-19T05:14:28.425Z,0.00
2019-02-19T05:15:28.411Z,0.00
2019-02-19T05:16:28.402Z,0.00
2019-02-19T05:17:28.390Z,0.00
2019-02-19T05:18:28.418Z,0.00
2019-02-19T05:19:28.369Z,0.00
2019-02-19T05:20:28.359Z,0.00
2019-02-19T05:21:28.346Z,0.00
2019-02-19T05:22:28.379Z,0.00
2019-02-19T05:23:28.360Z,0.00
2019-02-19T05:24:28.312Z,0.00
2019-02-19T05:25:28.307Z,0.00
2019-02-19T05:26:28.302Z,0.00
2019-02-19T05:27:28.277Z,0.00
2019-02-19T05:28:28.308Z,0.00
2019-02-19T05:29:28.300Z,0.00
2019-02-19T05:30:28.249Z,0.00
2019-02-19T05:31:28.235Z,0.00
2019-02-19T05:32:28.228Z,0.00
2019-02-19T05:33:28.213Z,0.00
2019-02-19T05:34:28.199Z,0.00
2019-02-19T05:35:28.229Z,0.00
2019-02-19T05:36:28.179Z,0.00
2019-02-19T05:37:28.165Z,0.00
2019-02-19T05:38:28.217Z,0.00
2019-02-19T05:39:28.143Z,0.00
2019-02-19T05:40:28.140Z,0.00
2019-02-19T05:41:28.125Z,0.00
2019-02-19T05:42:28.152Z,0.00
2019-02-19T05:43:28.099Z,0.00
2019-02-19T05:44:28.089Z,0.00
2019-02-19T05:45:28.076Z,0.00
2019-02-19T05:46:28.069Z,0.00
2019-02-19T05:47:28.095Z,0.00
2019-02-19T05:48:28.052Z,0.00
2019-02-19T05:49:28.031Z,0.00
2019-02-19T05:50:28.025Z,0.00
2019-02-19T05:51:28.016Z,0.00
2019-02-19T05:52:27.999Z,0.00
2019-02-19T05:53:28.026Z,0.00
2019-02-19T05:54:28.024Z,0.00
2019-02-19T05:55:27.965Z,0.00
2019-02-19T05:56:27.958Z,0.00
2019-02-19T05:57:27.943Z,0.00
2019-02-19T05:58:27.932Z,0.00
2019-02-19T05:59:27.923Z,0.00
2019-02-19T06:00:27.954Z,0.00
2019-02-19T06:01:27.900Z,0.00
2019-02-19T06:02:27.931Z,0.00
2019-02-19T06:03:27.876Z,0.00
2019-02-19T06:04:27.867Z,0.00
2019-02-19T06:05:27.881Z,0.00
2019-02-19T06:06:27.851Z,0.00
2019-02-19T06:07:27.840Z,0.00
2019-02-19T06:08:27.865Z,0.00
2019-02-19T06:09:27.816Z,0.00
2019-02-19T06:10:27.805Z,0.00
2019-02-19T06:11:27.790Z,0.00
2019-02-19T06:12:27.785Z,0.00
2019-02-19T06:13:27.817Z,0.00
2019-02-19T06:14:27.777Z,0.00
2019-02-19T06:15:27.744Z,0.00
2019-02-19T06:16:27.774Z,0.00
2019-02-19T06:17:27.767Z,0.00
2019-02-19T06:18:27.716Z,0.00
2019-02-19T06:19:27.702Z,4.00
2019-02-19T06:20:27.754Z,4.00
2019-02-19T06:21:27.688Z,0.00
2019-02-19T06:22:27.669Z,4.00
2019-02-19T06:23:27.707Z,8.00
2019-02-19T06:24:27.650Z,4.00
2019-02-19T06:25:27.637Z,4.00
2019-02-19T06:26:27.636Z,8.00
2019-02-19T06:27:27.615Z,12.00
2019-02-19T06:28:27.603Z,12.00
2019-02-19T06:29:27.637Z,16.00
2019-02-19T06:30:27.580Z,16.00
2019-02-19T06:31:27.572Z,20.00
2019-02-19T06:32:27.561Z,20.00
2019-02-19T06:33:27.555Z,20.00
2019-02-19T06:34:27.556Z,24.00
2019-02-19T06:35:27.574Z,28.00
2019-02-19T06:36:27.511Z,36.00
2019-02-19T06:37:27.504Z,44.00
2019-02-19T06:38:27.500Z,44.00
2019-02-19T06:39:27.539Z,56.00
2019-02-19T06:40:27.522Z,60.00
2019-02-19T06:41:27.501Z,72.00
2019-02-19T06:42:27.446Z,76.00
2019-02-19T06:43:27.466Z,84.00
2019-02-19T06:44:27.452Z,92.00
2019-02-19T06:45:27.426Z,100.00
2019-02-19T06:46:27.409Z,112.00
2019-02-19T06:47:27.442Z,116.00
2019-02-19T06:48:27.382Z,120.00
2019-02-19T06:49:27.367Z,124.00
2019-02-19T06:50:27.411Z,124.00
2019-02-19T06:51:27.351Z,128.00
2019-02-19T06:52:27.392Z,124.00
2019-02-19T06:53:27.373Z,124.00
2019-02-19T06:54:27.505Z,124.00
2019-02-19T06:55:27.328Z,124.00
2019-02-19T06:56:27.311Z,128.00
2019-02-19T06:57:27.336Z,128.00
2019-02-19T06:58:27.672Z,128.00
2019-02-19T06:59:27.312Z,132.00
2019-02-19T07:00:27.274Z,140.00
2019-02-19T07:01:27.264Z,152.00
2019-02-19T07:02:27.257Z,164.00
2019-02-19T07:03:27.286Z,176.00
2019-02-19T07:04:27.257Z,192.00
2019-02-19T07:05:27.203Z,208.00
2019-02-19T07:06:27.232Z,236.00
2019-02-19T07:07:27.189Z,268.00
2019-02-19T07:08:27.167Z,296.00
2019-02-19T07:09:27.161Z,320.00
2019-02-19T07:10:27.166Z,352.00
2019-02-19T07:11:27.168Z,372.00
2019-02-19T07:12:27.110Z,392.00
2019-02-19T07:13:27.130Z,408.00
2019-02-19T07:14:27.191Z,412.00
2019-02-19T07:15:27.119Z,400.00
2019-02-19T07:16:27.068Z,392.00
2019-02-19T07:17:27.063Z,384.00
2019-02-19T07:18:27.083Z,368.00
2019-02-19T07:19:27.048Z,352.00
2019-02-19T07:20:27.041Z,332.00
2019-02-19T07:21:27.061Z,348.00
2019-02-19T07:22:27.005Z,396.00
2019-02-19T07:23:27.006Z,448.00
2019-02-19T07:24:26.975Z,516.00
2019-02-19T07:25:26.965Z,600.00
2019-02-19T07:26:27.027Z,652.00
2019-02-19T07:27:26.941Z,672.00
2019-02-19T07:28:26.942Z,672.00
2019-02-19T07:29:26.924Z,688.00
2019-02-19T07:30:26.911Z,688.00
2019-02-19T07:31:26.969Z,680.00
2019-02-19T07:32:26.932Z,680.00
2019-02-19T07:33:26.875Z,692.00
2019-02-19T07:34:26.884Z,696.00
2019-02-19T07:35:26.859Z,700.00
2019-02-19T07:36:26.840Z,732.00
2019-02-19T07:37:26.878Z,764.00
2019-02-19T07:38:27.090Z,788.00
2019-02-19T07:39:26.820Z,852.00
2019-02-19T07:40:26.910Z,936.00
2019-02-19T07:41:26.988Z,1008.00
2019-02-19T07:42:26.779Z,1028.00
2019-02-19T07:43:26.846Z,1020.00
2019-02-19T07:44:26.761Z,1024.00
2019-02-19T07:45:27.372Z,1016.00
2019-02-19T07:46:26.748Z,988.00
2019-02-19T07:47:26.975Z,968.00
2019-02-19T07:48:26.722Z,952.00
2019-02-19T07:49:26.707Z,988.00
2019-02-19T07:50:26.922Z,1088.00
2019-02-19T07:51:26.757Z,1212.00
2019-02-19T07:52:26.718Z,1316.00
2019-02-19T07:53:26.898Z,1392.00
2019-02-19T07:54:26.642Z,1492.00
2019-02-19T07:55:26.781Z,1608.00
2019-02-19T07:56:26.618Z,1680.00
2019-02-19T07:57:26.636Z,1708.00
2019-02-19T07:58:26.788Z,1744.00
2019-02-19T07:59:26.603Z,1832.00
2019-02-19T08:00:26.575Z,1968.00
2019-02-19T08:01:26.593Z,2096.00
2019-02-19T08:02:26.592Z,2180.00
2019-02-19T08:03:26.652Z,2192.00
2019-02-19T08:04:26.630Z,2188.00
2019-02-19T08:05:26.771Z,2224.00
2019-02-19T08:06:26.711Z,2312.00
2019-02-19T08:07:26.513Z,2396.00
2019-02-19T08:08:26.504Z,2512.00
2019-02-19T08:09:26.691Z,2620.00
2019-02-19T08:10:26.504Z,2708.00
2019-02-19T08:11:26.496Z,2760.00
2019-02-19T08:12:26.438Z,2788.00
2019-02-19T08:13:26.441Z,2776.00
2019-02-19T08:14:26.419Z,2756.00
2019-02-19T08:15:26.477Z,2764.00
2019-02-19T08:16:26.398Z,2752.00
2019-02-19T08:17:33.080Z,2760.00
2019-02-19T08:18:27.382Z,2852.00
2019-02-19T08:19:26.361Z,2936.00
2019-02-19T08:20:26.349Z,3044.00
2019-02-19T08:21:26.414Z,3168.00
2019-02-19T08:22:26.340Z,3268.00
2019-02-19T08:23:26.356Z,3272.00
2019-02-19T08:24:26.325Z,3204.00
2019-02-19T08:25:26.293Z,3204.00
2019-02-19T08:26:26.278Z,3320.00
2019-02-19T08:27:26.314Z,3364.00
2019-02-19T08:28:26.259Z,3296.00
2019-02-19T08:29:26.289Z,3276.00
2019-02-19T08:30:26.268Z,3220.00
2019-02-19T08:31:26.243Z,3120.00
2019-02-19T08:32:26.278Z,3072.00
2019-02-19T08:33:26.241Z,3080.00
2019-02-19T08:34:26.258Z,3132.00
2019-02-19T08:35:26.200Z,3240.00
2019-02-19T08:36:26.195Z,3332.00
2019-02-19T08:37:26.170Z,3428.00
2019-02-19T08:38:26.175Z,3560.00
2019-02-19T08:39:26.268Z,3640.00
2019-02-19T08:40:26.189Z,3680.00
2019-02-19T08:41:26.131Z,3736.00
2019-02-19T08:42:26.106Z,3712.00
2019-02-19T08:43:26.292Z,3600.00
2019-02-19T08:44:27.994Z,3404.00
2019-02-19T08:45:26.345Z,3196.00
2019-02-19T08:46:28.605Z,2972.00
2019-02-19T08:47:26.669Z,2668.00
2019-02-19T08:48:26.471Z,2400.00
2019-02-19T08:49:26.166Z,2288.00
2019-02-19T08:50:26.085Z,2436.00
2019-02-19T08:51:26.265Z,2716.00
2019-02-19T08:52:26.113Z,2968.00
2019-02-19T08:53:26.056Z,3392.00
2019-02-19T08:54:26.020Z,3992.00
2019-02-19T08:55:25.994Z,4400.00
2019-02-19T08:56:25.956Z,4296.00
2019-02-19T08:57:26.013Z,3936.00
2019-02-19T08:58:25.932Z,4040.00
2019-02-19T08:59:26.029Z,4332.00
2019-02-19T09:00:25.935Z,4596.00
2019-02-19T09:01:25.886Z,4868.00
2019-02-19T09:02:25.876Z,5124.00
2019-02-19T09:03:25.911Z,5320.00
2019-02-19T09:04:25.895Z,5432.00
2019-02-19T09:05:25.852Z,5424.00
2019-02-19T09:06:27.583Z,5048.00
2019-02-19T09:07:25.929Z,4564.00
2019-02-19T09:08:27.800Z,4352.00
2019-02-19T09:09:25.825Z,4332.00
2019-02-19T09:10:25.862Z,4044.00
2019-02-19T09:11:25.945Z,3872.00
2019-02-19T09:12:25.853Z,3768.00
2019-02-19T09:13:25.810Z,3420.00
2019-02-19T09:14:25.762Z,3136.00
2019-02-19T09:15:25.733Z,3092.00
2019-02-19T09:16:25.721Z,3124.00
2019-02-19T09:17:25.715Z,3200.00
2019-02-19T09:18:26.446Z,3428.00
2019-02-19T09:19:25.693Z,3524.00
2019-02-19T09:20:25.728Z,3720.00
2019-02-19T09:21:25.972Z,3760.00
2019-02-19T09:22:25.673Z,3996.00
2019-02-19T09:23:26.226Z,4040.00
2019-02-19T09:24:26.345Z,4568.00
2019-02-19T09:25:25.753Z,4728.00
2019-02-19T09:26:25.798Z,4576.00
2019-02-19T09:27:25.664Z,4616.00
2019-02-19T09:28:26.574Z,4708.00
2019-02-19T09:29:25.639Z,4976.00
2019-02-19T09:30:28.333Z,5280.00
2019-02-19T09:31:25.600Z,5392.00
2019-02-19T09:32:25.618Z,5448.00
2019-02-19T09:33:25.562Z,5752.00
2019-02-19T09:34:25.559Z,6124.00
2019-02-19T09:35:25.744Z,6208.00
2019-02-19T09:36:25.494Z,6088.00
2019-02-19T09:37:25.561Z,6096.00
2019-02-19T09:38:25.498Z,6140.00
2019-02-19T09:39:25.674Z,6204.00
2019-02-19T09:40:25.451Z,6296.00
2019-02-19T09:41:25.606Z,6404.00
2019-02-19T09:42:25.725Z,6624.00
2019-02-19T09:43:25.491Z,6812.00
2019-02-19T09:44:25.403Z,6756.00
2019-02-19T09:45:25.463Z,6656.00
2019-02-19T09:46:25.444Z,6444.00
2019-02-19T09:47:25.494Z,6088.00
2019-02-19T09:48:25.391Z,5884.00
2019-02-19T09:49:25.354Z,5940.00
2019-02-19T09:50:25.357Z,6060.00
2019-02-19T09:51:25.526Z,5988.00
2019-02-19T09:52:25.336Z,5804.00
2019-02-19T09:53:25.304Z,5652.00
2019-02-19T09:54:25.357Z,5528.00
2019-02-19T09:55:26.329Z,5480.00
2019-02-19T09:56:25.257Z,5412.00
2019-02-19T09:57:25.482Z,5296.00
2019-02-19T09:58:25.276Z,5252.00
2019-02-19T09:59:25.491Z,5232.00
2019-02-19T10:00:25.920Z,5252.00
2019-02-19T10:01:25.456Z,5528.00
2019-02-19T10:02:25.503Z,5888.00
2019-02-19T10:03:25.193Z,5992.00
2019-02-19T10:04:25.400Z,5864.00
2019-02-19T10:05:25.162Z,5864.00
2019-02-19T10:06:25.429Z,6164.00
2019-02-19T10:07:25.160Z,6376.00
2019-02-19T10:08:25.136Z,6232.00
2019-02-19T10:09:25.109Z,5936.00
2019-02-19T10:10:25.570Z,5952.00
2019-02-19T10:11:25.220Z,5584.00
2019-02-19T10:12:25.287Z,5844.00
2019-02-19T10:13:26.280Z,5472.00
2019-02-19T10:14:25.154Z,5308.00
2019-02-19T10:15:25.065Z,5624.00
2019-02-19T10:16:25.104Z,6016.00
2019-02-19T10:17:25.330Z,6116.00
2019-02-19T10:18:25.871Z,6088.00
2019-02-19T10:19:26.096Z,5760.00
2019-02-19T10:20:25.006Z,6404.00
2019-02-19T10:21:24.973Z,6496.00
2019-02-19T10:22:25.362Z,6712.00
2019-02-19T10:23:25.108Z,6248.00
2019-02-19T10:24:25.316Z,5796.00
2019-02-19T10:25:24.986Z,6240.00
2019-02-19T10:26:24.959Z,6184.00
2019-02-19T10:27:24.968Z,5744.00
2019-02-19T10:28:24.912Z,5780.00
2019-02-19T10:29:25.066Z,6068.00
2019-02-19T10:30:24.976Z,6212.00
2019-02-19T10:31:25.299Z,6200.00
2019-02-19T10:32:24.953Z,6692.00
2019-02-19T10:33:24.995Z,6052.00
2019-02-19T10:34:24.857Z,5444.00
2019-02-19T10:35:26.318Z,5160.00
2019-02-19T10:36:25.135Z,5128.00
2019-02-19T10:37:24.789Z,5068.00
2019-02-19T10:38:24.789Z,4912.00
2019-02-19T10:39:24.824Z,4912.00
2019-02-19T10:40:24.812Z,4932.00
2019-02-19T10:41:25.581Z,4980.00
2019-02-19T10:42:24.816Z,4944.00
2019-02-19T10:43:24.786Z,4924.00
2019-02-19T10:44:24.823Z,4924.00
2019-02-19T10:45:24.697Z,5020.00
2019-02-19T10:46:24.712Z,5120.00
2019-02-19T10:47:24.734Z,5960.00
2019-02-19T10:48:24.707Z,6024.00
2019-02-19T10:49:24.693Z,5652.00
2019-02-19T10:50:24.659Z,5676.00
2019-02-19T10:51:24.688Z,6024.00
2019-02-19T10:52:24.641Z,6000.00
2019-02-19T10:53:24.607Z,5944.00
2019-02-19T10:54:24.598Z,5872.00
2019-02-19T10:55:24.675Z,5836.00
2019-02-19T10:56:24.603Z,5804.00
2019-02-19T10:57:24.628Z,5792.00
2019-02-19T10:58:24.553Z,5896.00
2019-02-19T10:59:24.624Z,5972.00
2019-02-19T11:00:24.577Z,5840.00
2019-02-19T11:01:27.262Z,6084.00
2019-02-19T11:02:24.608Z,5956.00
2019-02-19T11:03:24.599Z,5884.00
2019-02-19T11:04:24.486Z,5908.00
2019-02-19T11:05:24.470Z,5872.00
2019-02-19T11:06:24.504Z,5996.00
2019-02-19T11:07:24.469Z,6116.00
2019-02-19T11:08:24.527Z,6284.00
2019-02-19T11:09:24.470Z,6384.00
2019-02-19T11:10:24.417Z,6348.00
2019-02-19T11:11:24.440Z,6320.00
2019-02-19T11:12:24.531Z,6320.00
2019-02-19T11:13:24.502Z,6312.00
2019-02-19T11:14:25.381Z,6348.00
2019-02-19T11:15:24.397Z,6396.00
2019-02-19T11:16:24.355Z,6484.00
2019-02-19T11:17:24.333Z,6464.00
2019-02-19T11:18:28.551Z,6452.00
2019-02-19T11:19:24.444Z,6596.00
2019-02-19T11:20:25.259Z,6688.00
2019-02-19T11:21:24.629Z,6592.00
2019-02-19T11:22:26.012Z,6352.00
2019-02-19T11:23:24.452Z,6204.00
2019-02-19T11:24:24.259Z,6080.00
2019-02-19T11:25:24.296Z,6148.00
2019-02-19T11:26:24.259Z,6340.00
2019-02-19T11:27:24.787Z,6516.00
2019-02-19T11:28:24.233Z,6744.00
2019-02-19T11:29:24.203Z,6840.00
2019-02-19T11:30:24.301Z,6900.00
2019-02-19T11:31:24.338Z,6780.00
2019-02-19T11:32:24.201Z,6672.00
2019-02-19T11:33:24.185Z,6400.00
2019-02-19T11:34:24.292Z,6228.00
2019-02-19T11:35:24.138Z,6172.00
2019-02-19T11:36:24.122Z,6220.00
2019-02-19T11:37:24.156Z,6200.00
2019-02-19T11:38:24.099Z,6112.00
2019-02-19T11:39:24.114Z,6020.00
2019-02-19T11:40:24.077Z,5972.00
2019-02-19T11:41:24.091Z,5072.00
2019-02-19T11:42:24.121Z,6080.00
2019-02-19T11:43:24.141Z,6004.00
2019-02-19T11:44:24.038Z,5972.00
2019-02-19T11:45:24.032Z,6008.00
2019-02-19T11:46:24.076Z,5948.00
2019-02-19T11:47:26.619Z,5860.00
2019-02-19T11:48:24.821Z,5856.00
2019-02-19T11:49:24.083Z,5876.00
2019-02-19T11:50:23.963Z,5888.00
2019-02-19T11:51:23.948Z,5860.00
2019-02-19T11:52:23.977Z,5832.00
2019-02-19T11:53:24.012Z,5784.00
2019-02-19T11:54:23.935Z,5780.00
2019-02-19T11:55:24.277Z,5844.00
2019-02-19T11:56:23.934Z,5812.00
2019-02-19T11:57:24.004Z,5784.00
2019-02-19T11:58:23.865Z,5788.00
2019-02-19T11:59:23.859Z,5800.00
2019-02-19T12:00:23.858Z,5772.00
2019-02-19T12:01:23.834Z,5796.00
2019-02-19T12:02:32.432Z,5868.00
2019-02-19T12:03:24.816Z,5864.00
2019-02-19T12:04:23.849Z,5868.00
2019-02-19T12:05:23.796Z,5896.00
2019-02-19T12:06:23.794Z,5896.00
2019-02-19T12:07:23.823Z,5908.00
2019-02-19T12:08:23.764Z,5928.00
2019-02-19T12:09:23.814Z,5932.00
2019-02-19T12:10:25.227Z,5924.00
2019-02-19T12:11:23.726Z,5952.00
2019-02-19T12:12:23.906Z,5956.00
2019-02-19T12:13:23.742Z,5964.00
2019-02-19T12:14:23.721Z,6000.00
2019-02-19T12:15:23.737Z,6012.00
2019-02-19T12:16:23.686Z,6020.00
2019-02-19T12:17:23.717Z,6024.00
2019-02-19T12:18:23.755Z,6036.00
2019-02-19T12:19:23.661Z,6052.00
2019-02-19T12:20:23.625Z,6088.00
2019-02-19T12:21:23.659Z,6112.00
2019-02-19T12:22:23.598Z,6116.00
2019-02-19T12:23:23.709Z,6140.00
2019-02-19T12:24:23.584Z,6152.00
2019-02-19T12:25:23.563Z,6184.00
2019-02-19T12:26:23.585Z,6212.00
2019-02-19T12:27:23.759Z,6236.00
2019-02-19T12:28:23.563Z,6252.00
2019-02-19T12:29:23.563Z,6268.00
2019-02-19T12:30:23.541Z,6292.00
2019-02-19T12:31:23.544Z,6292.00
2019-02-19T12:32:23.540Z,6324.00
2019-02-19T12:33:23.476Z,6348.00
2019-02-19T12:34:23.541Z,6396.00
2019-02-19T12:35:23.450Z,6408.00
2019-02-19T12:36:23.511Z,6424.00
2019-02-19T12:37:23.426Z,6464.00
2019-02-19T12:38:23.573Z,6504.00
2019-02-19T12:39:23.415Z,6512.00
2019-02-19T12:40:23.496Z,6564.00
2019-02-19T12:41:23.379Z,6620.00
2019-02-19T12:42:23.482Z,6676.00
2019-02-19T12:43:23.359Z,6744.00